Time;durP1;ratioP1;P1;durP2;ratioP2;P2;SDS_P1;SDS_P2;PMS_P1;PMS_P2;Temp;Humidity;BMP_temperature;BMP_pressure;BME280_temperature;BME280_humidity;BME280_pressure;Samples;Min_cycle;Max_cycle;Signal;HPM_P1;HPM_P2
2022/02/17 00:00:19;;;;;;;56.02;32.38;;;;;;;3.40;61.81;100477.17;1694593;84;25691;-58
2022/02/17 00:02:50;;;;;;;61.05;32.00;;;;;;;3.32;61.94;100476.80;1698168;84;26323;-59
2022/02/17 00:05:17;;;;;;;66.45;31.70;;;;;;;3.21;61.92;100473.47;1698133;84;25721;-58
2022/02/17 00:07:44;;;;;;;54.65;30.27;;;;;;;3.16;62.10;100479.08;1698287;84;25714;-58
2022/02/17 00:10:13;;;;;;;56.37;29.90;;;;;;;3.08;62.47;100476.91;1671376;85;25805;-58
2022/02/17 00:12:40;;;;;;;58.45;30.25;;;;;;;3.04;62.51;100480.70;1671540;85;25761;-57
2022/02/17 00:15:08;;;;;;;56.55;30.97;;;;;;;3.03;62.77;100488.77;1690435;84;27486;-58
2022/02/17 00:17:36;;;;;;;61.63;30.60;;;;;;;3.04;63.54;100490.00;1698242;84;25841;-58
2022/02/17 00:20:04;;;;;;;62.75;31.45;;;;;;;3.02;63.31;100490.56;1698323;84;25765;-58
2022/02/17 00:22:31;;;;;;;65.90;34.45;;;;;;;3.04;63.52;100497.97;1698472;84;25848;-58
2022/02/17 00:24:57;;;;;;;59.25;31.07;;;;;;;3.09;63.71;100499.02;1686553;84;25776;-57
2022/02/17 00:27:25;;;;;;;63.10;31.33;;;;;;;3.10;63.73;100492.27;1675808;84;27485;-58
2022/02/17 00:29:53;;;;;;;62.10;31.07;;;;;;;3.16;64.00;100489.70;1689384;83;25783;-58
2022/02/17 00:32:22;;;;;;;63.10;31.70;;;;;;;3.19;64.04;100483.34;1684982;85;25834;-57
2022/02/17 00:34:49;;;;;;;59.98;31.27;;;;;;;3.19;63.96;100479.35;1684994;85;26559;-57
2022/02/17 00:37:17;;;;;;;57.90;31.90;;;;;;;3.19;63.82;100479.35;1684828;85;25517;-58
2022/02/17 00:39:44;;;;;;;61.37;31.50;;;;;;;3.17;63.69;100478.13;1681662;85;28189;-58
2022/02/17 00:42:12;;;;;;;51.20;29.42;;;;;;;3.15;63.63;100465.41;1683174;84;25779;-58
2022/02/17 00:44:39;;;;;;;51.85;29.72;;;;;;;3.09;63.36;100458.66;1685472;83;25725;-58
2022/02/17 00:47:06;;;;;;;75.17;31.73;;;;;;;3.06;63.13;100468.17;1709394;83;25788;-58
2022/02/17 00:49:33;;;;;;;67.67;32.00;;;;;;;2.98;62.80;100467.80;1709432;83;25729;-58
2022/02/17 00:52:01;;;;;;;56.83;30.57;;;;;;;2.88;62.72;100462.17;1709500;83;28425;-57
2022/02/17 00:54:29;;;;;;;61.35;30.20;;;;;;;2.76;62.53;100458.47;1705366;83;25842;-58
2022/02/17 00:56:56;;;;;;;55.85;27.87;;;;;;;2.64;62.49;100455.26;1684741;84;25749;-58
2022/02/17 00:59:26;;;;;;;64.90;29.45;;;;;;;2.53;62.64;100455.88;1684813;85;25751;-58
2022/02/17 01:01:53;;;;;;;53.65;30.35;;;;;;;2.44;62.98;100448.47;1684768;85;25703;-57
2022/02/17 01:04:20;;;;;;;53.23;28.12;;;;;;;2.38;63.06;100452.34;1684716;85;27467;-59
2022/02/17 01:06:47;;;;;;;54.88;30.48;;;;;;;2.35;63.30;100454.71;1684705;85;25775;-58
2022/02/17 01:09:15;;;;;;;47.75;27.07;;;;;;;2.32;63.51;100446.08;1693546;84;25810;-57
2022/02/17 01:11:43;;;;;;;52.60;27.48;;;;;;;2.29;63.56;100438.28;1698053;84;25815;-58
2022/02/17 01:14:11;;;;;;;50.25;28.45;;;;;;;2.26;63.82;100438.00;1698517;84;25676;-58
2022/02/17 01:16:39;;;;;;;52.05;27.73;;;;;;;2.24;64.04;100432.41;1698186;84;28324;-58
2022/02/17 01:19:10;;;;;;;50.30;26.87;;;;;;;2.19;64.72;100436.66;1697048;84;25889;-58
2022/02/17 01:21:38;;;;;;;61.68;29.12;;;;;;;2.14;64.16;100423.66;1698033;84;25845;-58
2022/02/17 01:24:05;;;;;;;54.75;27.75;;;;;;;2.14;64.37;100426.31;1691751;83;25789;-57
2022/02/17 01:26:32;;;;;;;51.75;27.27;;;;;;;2.15;64.51;100422.72;1685001;85;25834;-58
2022/02/17 01:29:02;;;;;;;54.95;27.45;;;;;;;2.17;64.55;100431.45;1684625;84;27481;-58
2022/02/17 01:31:30;;;;;;;45.65;27.45;;;;;;;2.15;64.44;100429.84;1684883;85;25973;-58
2022/02/17 01:33:59;;;;;;;50.78;26.50;;;;;;;2.11;64.26;100419.02;1684578;85;25753;-58
2022/02/17 01:36:27;;;;;;;60.20;30.02;;;;;;;2.06;64.29;100414.45;1692481;84;25781;-58
2022/02/17 01:38:55;;;;;;;55.95;29.55;;;;;;;2.03;64.34;100415.02;1698279;84;25825;-58
2022/02/17 01:41:23;;;;;;;53.17;28.65;;;;;;;2.01;64.33;100410.75;1698193;84;27490;-59
2022/02/17 01:43:52;;;;;;;49.95;28.70;;;;;;;1.93;64.04;100405.04;1696866;84;25809;-58
2022/02/17 01:46:35;;;;;;;51.90;28.32;;;;;;;1.82;63.97;100399.88;1688742;83;25745;-59
2022/02/17 01:49:05;;;;;;;57.17;29.92;;;;;;;1.76;64.03;100394.91;1686536;84;26459;-58
2022/02/17 01:51:32;;;;;;;51.70;27.87;;;;;;;1.73;64.00;100396.44;1692307;84;25813;-59
2022/02/17 01:54:02;;;;;;;59.33;29.32;;;;;;;1.69;64.39;100399.73;1692394;84;27502;-58
2022/02/17 01:56:32;;;;;;;50.45;26.65;;;;;;;1.61;64.24;100390.50;1691988;84;25750;-57
2022/02/17 01:59:06;;;;;;;51.88;27.10;;;;;;;1.56;64.38;100381.48;1691972;84;25869;-58
2022/02/17 02:01:35;;;;;;;54.13;28.83;;;;;;;1.54;64.67;100392.19;1670541;84;25838;-57
2022/02/17 02:04:04;;;;;;;54.03;27.87;;;;;;;1.52;64.69;100375.50;1693696;84;25762;-58
2022/02/17 02:06:32;;;;;;;67.20;26.90;;;;;;;1.55;64.82;100366.52;1692415;84;27519;-57
2022/02/17 02:09:03;;;;;;;49.98;27.48;;;;;;;1.54;64.94;100356.39;1692395;84;25781;-57
2022/02/17 02:11:32;;;;;;;50.73;26.75;;;;;;;1.54;64.95;100355.07;1690317;84;25662;-57
2022/02/17 02:14:00;;;;;;;53.05;27.50;;;;;;;1.51;65.00;100352.59;1692168;84;26387;-58
2022/02/17 02:16:29;;;;;;;58.58;28.73;;;;;;;1.52;65.08;100349.48;1693427;84;25846;-58
2022/02/17 02:18:56;;;;;;;58.87;27.90;;;;;;;1.54;65.05;100339.16;1698431;84;27468;-58
2022/02/17 02:21:24;;;;;;;57.45;28.55;;;;;;;1.53;65.03;100338.78;1697882;84;25777;-58
2022/02/17 02:23:51;;;;;;;49.20;25.90;;;;;;;1.48;64.58;100335.52;1698255;84;25845;-58
2022/02/17 02:26:18;;;;;;;50.15;26.25;;;;;;;1.42;64.52;100339.86;1700230;83;25738;-58
2022/02/17 02:28:45;;;;;;;53.90;27.75;;;;;;;1.35;64.52;100328.75;1698076;84;25657;-58
2022/02/17 02:31:12;;;;;;;64.20;32.15;;;;;;;1.29;64.64;100330.92;1694351;84;28166;-57
2022/02/17 02:33:43;;;;;;;64.32;30.40;;;;;;;1.24;64.69;100328.53;1692428;84;25521;-57
2022/02/17 02:36:10;;;;;;;49.40;25.25;;;;;;;1.19;64.87;100321.30;1692698;84;25483;-58
2022/02/17 02:38:40;;;;;;;63.90;31.17;;;;;;;1.16;65.08;100315.70;1690576;84;25897;-58
2022/02/17 02:41:08;;;;;;;60.23;30.23;;;;;;;1.18;65.32;100315.16;1690883;84;25811;-58
2022/02/17 02:43:38;;;;;;;61.20;32.05;;;;;;;1.22;65.44;100306.07;1692527;84;27465;-58
2022/02/17 02:46:08;;;;;;;67.70;33.05;;;;;;;1.23;65.43;100302.97;1696788;83;25829;-57
2022/02/17 02:48:35;;;;;;;65.67;31.37;;;;;;;1.25;65.69;100291.33;1698546;84;25781;-58
2022/02/17 02:51:04;;;;;;;62.10;31.52;;;;;;;1.29;65.70;100288.52;1698397;84;26483;-57
2022/02/17 02:53:31;;;;;;;56.20;30.40;;;;;;;1.27;65.62;100290.39;1698533;84;25702;-57
2022/02/17 02:55:59;;;;;;;56.55;29.80;;;;;;;1.20;65.31;100286.78;1698538;84;28558;-56
2022/02/17 02:58:26;;;;;;;60.45;28.35;;;;;;;1.13;65.02;100285.88;1698000;84;25504;-57
2022/02/17 03:00:54;;;;;;;43.38;24.12;;;;;;;1.08;64.97;100277.71;1698355;84;25782;-56
2022/02/17 03:03:20;;;;;;;50.38;26.05;;;;;;;1.04;64.93;100279.30;1698338;84;26964;-57
2022/02/17 03:05:47;;;;;;;55.48;26.77;;;;;;;0.95;65.46;100272.75;1698304;84;25756;-56
2022/02/17 03:08:16;;;;;;;51.33;26.05;;;;;;;0.85;65.21;100264.45;1698543;84;27508;-57
2022/02/17 03:10:45;;;;;;;47.58;24.63;;;;;;;0.82;65.34;100258.47;1697478;84;25756;-57
2022/02/17 03:13:29;;;;;;;45.48;25.43;;;;;;;0.82;65.51;100254.50;1668710;84;25719;-57
2022/02/17 03:15:56;;;;;;;38.02;22.42;;;;;;;0.76;65.56;100245.13;1685090;85;25812;-57
2022/02/17 03:18:24;;;;;;;39.90;21.97;;;;;;;0.73;65.66;100247.46;1685360;85;25802;-57
2022/02/17 03:20:51;;;;;;;47.78;23.55;;;;;;;0.68;65.80;100239.38;1685191;85;28343;-57
2022/02/17 03:23:20;;;;;;;43.25;23.73;;;;;;;0.65;65.75;100243.55;1684858;85;25817;-57
2022/02/17 03:25:47;;;;;;;43.70;24.25;;;;;;;0.64;65.96;100229.44;1688918;84;25764;-57
2022/02/17 03:28:16;;;;;;;49.30;24.05;;;;;;;0.65;66.08;100229.83;1690137;84;25975;-58
2022/02/17 03:30:54;;;;;;;43.87;23.42;;;;;;;0.70;66.30;100230.89;1690275;84;25832;-57
2022/02/17 03:33:22;;;;;;;44.98;22.00;;;;;;;0.69;66.25;100222.56;1690682;84;28882;-58
2022/02/17 03:35:50;;;;;;;48.65;21.87;;;;;;;0.72;66.30;100225.05;1690551;84;25733;-59
2022/02/17 03:38:18;;;;;;;34.10;21.25;;;;;;;0.71;66.31;100230.83;1691132;84;25805;-58
2022/02/17 03:40:47;;;;;;;41.37;22.90;;;;;;;0.68;66.46;100216.87;1690702;84;25915;-57
2022/02/17 03:43:17;;;;;;;50.92;23.22;;;;;;;0.58;66.21;100219.20;1690857;84;25502;-57
2022/02/17 03:45:45;;;;;;;41.02;24.07;;;;;;;0.50;66.15;100224.91;1689085;84;27639;-58
2022/02/17 03:48:12;;;;;;;37.40;21.52;;;;;;;0.47;66.34;100221.13;1687599;85;25745;-58
2022/02/17 03:50:42;;;;;;;45.08;22.60;;;;;;;0.45;66.26;100222.52;1687547;85;25915;-57
2022/02/17 03:53:11;;;;;;;45.17;22.00;;;;;;;0.43;66.60;100227.52;1689433;84;25880;-58
2022/02/17 03:55:40;;;;;;;46.75;22.45;;;;;;;0.37;66.27;100225.22;1690278;84;25740;-58
2022/02/17 03:58:07;;;;;;;39.00;21.40;;;;;;;0.38;66.41;100232.22;1690786;84;27442;-58
2022/02/17 04:00:34;;;;;;;41.70;21.35;;;;;;;0.40;66.51;100222.42;1690922;84;25835;-58
2022/02/17 04:03:04;;;;;;;45.95;23.35;;;;;;;0.39;66.43;100217.58;1690908;83;25708;-58
2022/02/17 04:05:33;;;;;;;33.88;20.25;;;;;;;0.35;66.32;100208.56;1690899;84;25846;-58
2022/02/17 04:08:01;;;;;;;41.00;21.73;;;;;;;0.35;66.46;100215.19;1690749;84;25834;-57
2022/02/17 04:10:30;;;;;;;38.05;20.57;;;;;;;0.36;66.76;100202.34;1691130;84;27511;-58
2022/02/17 04:12:59;;;;;;;36.88;21.12;;;;;;;0.36;67.32;100198.38;1683222;83;25733;-57
2022/02/17 04:15:27;;;;;;;42.67;22.17;;;;;;;0.30;66.60;100195.14;1691557;82;25801;-58
2022/02/17 04:17:55;;;;;;;43.50;21.05;;;;;;;0.29;66.94;100186.81;1698508;84;26514;-57
2022/02/17 04:20:23;;;;;;;37.10;21.23;;;;;;;0.33;67.12;100177.36;1695995;83;25841;-57
2022/02/17 04:23:10;;;;;;;37.95;21.73;;;;;;;0.35;67.07;100176.37;1687609;84;27521;-58
2022/02/17 04:25:39;;;;;;;38.45;20.08;;;;;;;0.36;67.23;100179.37;1690706;84;25808;-58
2022/02/17 04:28:10;;;;;;;35.63;21.17;;;;;;;0.39;67.19;100181.02;1690833;83;25753;-57
2022/02/17 04:30:38;;;;;;;34.60;20.68;;;;;;;0.31;66.77;100175.66;1691132;84;26131;-58
2022/02/17 04:33:06;;;;;;;36.65;20.35;;;;;;;0.26;66.74;100173.75;1690906;83;25878;-59
2022/02/17 04:35:43;;;;;;;39.73;20.43;;;;;;;0.21;66.77;100174.48;1688846;84;27567;-59
2022/02/17 04:38:11;;;;;;;38.83;20.80;;;;;;;0.20;66.88;100168.80;1693076;84;25758;-58
2022/02/17 04:43:32;;;;;;;39.95;20.90;;;;;;;0.17;66.96;100161.03;1692750;84;25789;-58
2022/02/17 04:45:59;;;;;;;46.42;20.75;;;;;;;0.19;66.92;100155.64;1670716;84;25850;-58
2022/02/17 04:48:27;;;;;;;118.28;25.62;;;;;;;0.17;66.94;100121.34;1682104;84;27468;-58
2022/02/17 04:50:55;;;;;;;49.15;22.40;;;;;;;0.14;66.87;100116.22;1660827;84;26445;-58
2022/02/17 04:53:24;;;;;;;45.40;24.87;;;;;;;0.14;67.22;100122.83;1656892;84;25776;-58
2022/02/17 04:55:53;;;;;;;49.00;23.60;;;;;;;0.16;67.30;100118.31;1656886;86;26675;-57
2022/02/17 04:58:22;;;;;;;49.18;22.32;;;;;;;0.20;67.48;100109.73;1657169;86;25510;-58
2022/02/17 05:00:51;;;;;;;46.05;22.13;;;;;;;0.22;67.64;100118.00;1658549;84;27487;-58
2022/02/17 05:03:24;;;;;;;36.13;20.77;;;;;;;0.21;67.50;100106.16;1686045;84;25729;-57
2022/02/17 05:05:54;;;;;;;39.40;21.10;;;;;;;0.18;67.18;100107.67;1693075;84;26014;-57
2022/02/17 05:08:21;;;;;;;39.70;20.55;;;;;;;0.14;67.12;100105.19;1695258;84;25772;-57
2022/02/17 05:10:49;;;;;;;35.68;18.85;;;;;;;0.11;66.96;100102.70;1683590;84;25746;-57
2022/02/17 05:13:17;;;;;;;44.75;20.65;;;;;;;0.03;66.77;100098.80;1655787;86;27470;-57
2022/02/17 05:15:45;;;;;;;42.03;18.32;;;;;;;0.01;67.00;100107.27;1655842;86;25688;-57
2022/02/17 05:18:14;;;;;;;33.00;18.75;;;;;;;-0.02;67.12;100095.92;1655580;86;25468;-57
2022/02/17 05:20:41;;;;;;;33.40;17.42;;;;;;;0.00;67.25;100095.86;1655967;86;25813;-58
2022/02/17 05:23:13;;;;;;;34.33;19.55;;;;;;;-0.02;67.39;100088.47;1677546;84;25678;-58
2022/02/17 05:25:42;;;;;;;37.13;19.98;;;;;;;-0.01;67.51;100094.98;1673989;84;27569;-58
2022/02/17 05:28:11;;;;;;;40.12;20.60;;;;;;;-0.01;67.50;100091.02;1652287;85;25768;-56
2022/02/17 05:30:50;;;;;;;35.92;19.60;;;;;;;-0.01;67.57;100086.22;1661317;84;25842;-57
2022/02/17 05:33:35;;;;;;;44.70;21.80;;;;;;;0.05;67.76;100081.89;1673495;84;26552;-57
2022/02/17 05:36:12;;;;;;;38.35;18.60;;;;;;;0.10;67.90;100089.57;1680822;84;25786;-58
2022/02/17 05:38:41;;;;;;;39.67;19.02;;;;;;;0.06;67.96;100093.31;1692000;83;27435;-57
2022/02/17 05:41:18;;;;;;;39.92;19.00;;;;;;;0.02;67.93;100087.83;1689979;83;25814;-57
2022/02/17 05:43:45;;;;;;;33.65;18.30;;;;;;;0.03;68.04;100082.45;1691079;84;25798;-57
2022/02/17 05:46:12;;;;;;;37.10;19.15;;;;;;;0.07;68.26;100068.58;1688644;84;26247;-57
2022/02/17 05:48:40;;;;;;;40.28;18.35;;;;;;;0.07;68.17;100067.25;1690070;84;25727;-58
2022/02/17 05:51:07;;;;;;;34.13;17.25;;;;;;;0.12;68.37;100067.38;1691120;84;27445;-57
2022/02/17 05:53:34;;;;;;;40.15;19.25;;;;;;;0.20;68.46;100064.77;1690747;84;25847;-57
2022/02/17 05:56:01;;;;;;;37.25;17.95;;;;;;;0.26;68.55;100071.89;1690918;84;25656;-57
2022/02/17 05:58:29;;;;;;;36.30;18.10;;;;;;;0.27;68.65;100066.98;1690742;83;25875;-58
2022/02/17 06:00:56;;;;;;;42.13;19.62;;;;;;;0.29;68.64;100069.53;1691123;84;25772;-58
2022/02/17 06:03:22;;;;;;;40.35;18.57;;;;;;;0.31;68.46;100071.63;1690736;84;29647;-57
2022/02/17 06:05:51;;;;;;;42.30;18.70;;;;;;;0.37;68.64;100072.59;1690814;83;25761;-58
2022/02/17 06:08:18;;;;;;;36.13;19.27;;;;;;;0.41;68.92;100070.62;1690867;84;25806;-57
2022/02/17 06:10:46;;;;;;;47.90;20.85;;;;;;;0.45;68.71;100080.09;1690764;84;26181;-58
2022/02/17 06:13:12;;;;;;;58.70;22.32;;;;;;;0.51;69.24;100073.60;1690824;84;25718;-57
2022/02/17 06:15:41;;;;;;;55.08;25.37;;;;;;;0.73;69.24;100072.72;1690843;84;27486;-58
2022/02/17 06:18:08;;;;;;;41.75;21.20;;;;;;;1.20;69.59;100062.02;1690951;84;26279;-57
2022/02/17 06:20:36;;;;;;;43.35;19.57;;;;;;;1.31;69.11;100059.58;1690907;84;25823;-58
2022/02/17 06:23:03;;;;;;;48.90;23.60;;;;;;;1.42;69.06;100053.59;1690775;84;25862;-57
2022/02/17 06:25:29;;;;;;;39.27;18.55;;;;;;;1.56;68.59;100052.74;1691146;84;25811;-57
2022/02/17 06:27:58;;;;;;;33.58;19.15;;;;;;;1.59;68.56;100041.95;1690794;84;27465;-58
2022/02/17 06:30:25;;;;;;;30.15;16.85;;;;;;;1.52;68.58;100036.67;1690874;84;25894;-57
2022/02/17 06:32:56;;;;;;;40.65;18.55;;;;;;;1.50;68.58;100030.60;1690782;83;25820;-57
2022/02/17 06:35:32;;;;;;;36.00;19.20;;;;;;;1.48;68.66;100033.33;1690868;84;25761;-57
2022/02/17 06:38:02;;;;;;;38.98;17.98;;;;;;;1.46;68.70;100026.42;1687383;84;25794;-57
2022/02/17 06:40:31;;;;;;;41.00;19.92;;;;;;;1.48;68.61;100017.91;1668701;86;27910;-57
2022/02/17 06:43:04;;;;;;;39.03;20.35;;;;;;;1.53;68.69;100025.09;1668778;86;25879;-57
2022/02/17 06:45:31;;;;;;;38.95;19.15;;;;;;;1.58;69.13;100015.52;1663680;85;25812;-57
2022/02/17 06:47:59;;;;;;;41.20;21.97;;;;;;;1.64;69.65;100011.17;1655736;86;26634;-57
2022/02/17 06:50:26;;;;;;;42.48;21.55;;;;;;;1.71;69.59;100001.88;1656863;86;25754;-57
2022/02/17 06:52:55;;;;;;;44.70;20.70;;;;;;;1.82;69.78;99991.89;1656370;86;27486;-58
2022/02/17 06:55:22;;;;;;;35.92;17.55;;;;;;;1.99;71.24;99992.97;1656613;86;25526;-57
2022/02/17 06:57:50;;;;;;;32.17;15.53;;;;;;;2.23;72.27;99990.13;1656471;86;25806;-57
2022/02/17 07:00:19;;;;;;;33.45;16.65;;;;;;;2.56;74.12;99975.53;1633460;86;25791;-57
2022/02/17 07:02:52;;;;;;;22.55;13.38;;;;;;;2.95;74.10;99981.73;1667427;85;25717;-58
2022/02/17 07:05:21;;;;;;;19.57;9.48;;;;;;;3.40;74.71;99978.13;1668565;85;28194;-56
2022/02/17 07:07:48;;;;;;;18.25;8.60;;;;;;;3.94;74.07;99973.87;1668423;85;25849;-57
2022/02/17 07:10:54;;;;;;;25.82;8.20;;;;;;;4.61;72.18;99973.73;1668615;85;25815;-57
2022/02/17 07:12:48;;;;;;;16.65;7.75;;;;;;;5.16;70.51;99967.25;1665072;86;25820;-57
2022/02/17 07:15:16;;;;;;;18.27;7.50;;;;;;;5.61;68.83;99959.22;1659766;86;25825;-57
2022/02/17 07:17:44;;;;;;;19.40;7.35;;;;;;;5.98;67.27;99950.51;1656480;86;27505;-57
2022/02/17 07:20:12;;;;;;;15.00;6.83;;;;;;;6.28;66.45;99951.14;1656437;86;25856;-57
2022/02/17 07:22:40;;;;;;;23.35;7.83;;;;;;;6.56;65.82;99956.83;1656390;84;25759;-57
2022/02/17 07:25:07;;;;;;;23.75;8.13;;;;;;;6.89;63.60;99945.58;1660998;86;25801;-57
2022/02/17 07:27:34;;;;;;;18.35;7.92;;;;;;;7.16;62.96;99941.48;1666825;86;25847;-57
2022/02/17 07:30:00;;;;;;;17.92;8.10;;;;;;;7.37;61.57;99925.36;1668527;85;28765;-57
2022/02/17 07:32:27;;;;;;;19.50;7.78;;;;;;;7.60;61.00;99934.48;1668439;85;25768;-57
2022/02/17 07:34:55;;;;;;;21.87;8.15;;;;;;;7.79;60.86;99927.00;1668442;85;25739;-57
2022/02/17 07:37:23;;;;;;;19.87;6.37;;;;;;;7.99;58.81;99916.63;1667904;86;25815;-57
2022/02/17 07:39:49;;;;;;;17.85;6.92;;;;;;;8.20;58.11;99922.86;1678226;85;25753;-57
2022/02/17 07:42:16;;;;;;;16.48;7.67;;;;;;;8.36;56.95;99923.13;1684519;85;27469;-57
2022/02/17 07:44:43;;;;;;;17.87;7.17;;;;;;;8.60;55.63;99920.50;1685149;84;25745;-57
2022/02/17 07:47:10;;;;;;;22.13;7.70;;;;;;;8.80;55.04;99909.73;1688399;84;25658;-57
2022/02/17 07:49:37;;;;;;;14.93;7.30;;;;;;;8.94;55.09;99895.83;1684698;85;26149;-56
2022/02/17 07:52:06;;;;;;;15.68;6.67;;;;;;;9.10;54.08;99903.77;1688293;84;25786;-57
2022/02/17 07:54:32;;;;;;;25.00;6.83;;;;;;;9.24;53.90;99883.14;1694216;84;27404;-57
2022/02/17 07:57:02;;;;;;;18.45;7.37;;;;;;;9.42;53.59;99880.48;1689777;84;27331;-56
2022/02/17 07:59:28;;;;;;;20.92;7.15;;;;;;;9.61;53.29;99871.47;1692304;83;25757;-56
2022/02/17 08:01:56;;;;;;;20.95;7.47;;;;;;;9.82;52.50;99871.66;1688767;84;25763;-56
2022/02/17 08:04:23;;;;;;;13.93;6.40;;;;;;;10.03;51.58;99859.27;1691960;84;25782;-56
2022/02/17 08:06:50;;;;;;;13.58;6.15;;;;;;;10.27;50.91;99857.25;1689221;84;27510;-57
2022/02/17 08:09:17;;;;;;;21.45;6.83;;;;;;;10.46;49.85;99862.12;1694954;84;25774;-56
2022/02/17 08:11:44;;;;;;;16.50;6.47;;;;;;;10.65;49.74;99844.42;1698058;84;25759;-56
2022/02/17 08:14:10;;;;;;;12.85;6.65;;;;;;;10.91;48.86;99848.09;1698099;84;26462;-57
2022/02/17 08:16:37;;;;;;;20.68;6.47;;;;;;;11.05;48.88;99838.56;1698085;84;25519;-57
2022/02/17 08:19:07;;;;;;;14.65;6.53;;;;;;;11.24;47.01;99850.91;1697985;84;27412;-56
2022/02/17 08:21:34;;;;;;;12.95;6.20;;;;;;;11.42;46.29;99846.77;1694793;84;26200;-56
2022/02/17 08:24:01;;;;;;;20.97;6.47;;;;;;;11.53;45.54;99837.52;1692091;83;25750;-56
2022/02/17 08:26:27;;;;;;;14.78;7.28;;;;;;;11.66;45.53;99831.13;1684803;85;25853;-57
2022/02/17 08:28:57;;;;;;;15.40;5.85;;;;;;;11.71;45.35;99823.41;1685115;85;25711;-56
2022/02/17 08:31:23;;;;;;;15.30;6.85;;;;;;;11.80;44.55;99835.54;1691914;83;27478;-57
2022/02/17 08:33:49;;;;;;;21.05;8.10;;;;;;;11.82;45.20;99821.41;1697941;84;25786;-56
2022/02/17 08:36:17;;;;;;;15.43;7.60;;;;;;;11.83;45.25;99826.61;1698033;84;25821;-57
2022/02/17 08:38:45;;;;;;;13.20;6.47;;;;;;;11.83;45.08;99821.73;1685190;83;25784;-56
2022/02/17 08:41:13;;;;;;;20.00;7.45;;;;;;;11.94;44.47;99825.95;1684528;85;25746;-56
2022/02/17 08:43:40;;;;;;;15.98;8.30;;;;;;;11.94;44.59;99816.52;1685036;85;28166;-56
2022/02/17 08:46:06;;;;;;;18.65;8.35;;;;;;;12.06;44.53;99805.73;1694060;83;25700;-57
2022/02/17 08:48:33;;;;;;;23.02;8.68;;;;;;;12.12;45.04;99788.05;1693254;83;25795;-57
2022/02/17 08:51:00;;;;;;;23.40;8.23;;;;;;;12.27;44.88;99792.24;1691614;84;25709;-57
2022/02/17 08:53:28;;;;;;;22.20;7.40;;;;;;;12.51;43.64;99781.38;1692836;83;25882;-56
2022/02/17 08:55:55;;;;;;;13.72;6.50;;;;;;;12.72;43.93;99781.84;1693506;82;27484;-56
2022/02/17 08:58:22;;;;;;;19.00;6.67;;;;;;;12.99;42.62;99764.34;1700320;82;25739;-56
2022/02/17 09:00:49;;;;;;;20.45;7.80;;;;;;;13.17;42.80;99758.68;1698334;83;25750;-56
2022/02/17 09:03:16;;;;;;;15.80;6.72;;;;;;;13.34;41.92;99746.41;1690212;84;25803;-56
2022/02/17 09:05:43;;;;;;;13.95;7.45;;;;;;;13.39;41.81;99742.69;1685853;84;25767;-57
2022/02/17 09:08:10;;;;;;;16.55;6.97;;;;;;;13.40;41.20;99734.91;1691538;84;26932;-57
2022/02/17 09:10:37;;;;;;;18.27;6.55;;;;;;;13.34;41.24;99736.44;1691317;84;25741;-57
2022/02/17 09:13:05;;;;;;;13.50;6.55;;;;;;;13.32;41.34;99737.13;1691237;84;25712;-56
2022/02/17 09:15:32;;;;;;;20.95;6.40;;;;;;;13.32;40.42;99739.82;1690401;84;25820;-57
2022/02/17 09:17:59;;;;;;;14.85;6.03;;;;;;;13.45;40.57;99717.14;1688385;84;25677;-57
2022/02/17 09:20:25;;;;;;;21.50;5.62;;;;;;;13.61;40.12;99724.29;1687840;84;28249;-56
2022/02/17 09:22:53;;;;;;;12.13;5.90;;;;;;;13.69;39.51;99709.84;1689428;83;26044;-57
2022/02/17 09:25:20;;;;;;;21.45;5.22;;;;;;;13.69;39.31;99719.30;1692921;83;25861;-56
2022/02/17 09:27:47;;;;;;;18.32;6.22;;;;;;;13.68;39.94;99701.41;1691517;84;25831;-56
2022/02/17 09:30:14;;;;;;;14.03;5.53;;;;;;;13.68;39.90;99704.11;1691262;84;25775;-56
2022/02/17 09:32:41;;;;;;;15.45;5.47;;;;;;;13.76;39.21;99693.74;1692946;84;27529;-57
2022/02/17 09:35:12;;;;;;;12.63;6.33;;;;;;;13.80;38.98;99699.13;1696765;84;25727;-56
2022/02/17 09:37:40;;;;;;;15.25;6.15;;;;;;;13.84;39.04;99690.95;1699887;84;25716;-56
2022/02/17 09:40:09;;;;;;;13.35;7.28;;;;;;;13.91;38.99;99686.48;1678268;84;26517;-56
2022/02/17 09:42:38;;;;;;;24.52;8.40;;;;;;;13.98;38.93;99683.06;1666766;84;25710;-56
2022/02/17 09:45:09;;;;;;;19.25;6.33;;;;;;;14.03;39.08;99671.99;1665916;86;27495;-58
2022/02/17 09:47:40;;;;;;;15.65;6.92;;;;;;;14.11;38.95;99658.08;1655998;84;25796;-56
2022/02/17 09:50:11;;;;;;;17.12;5.92;;;;;;;14.15;38.74;99658.02;1652315;85;25460;-57
2022/02/17 09:52:39;;;;;;;12.95;4.85;;;;;;;14.19;39.04;99647.16;1658391;84;26580;-57
2022/02/17 09:55:16;;;;;;;7.47;3.40;;;;;;;14.28;37.84;99655.50;1664301;84;25469;-57
2022/02/17 09:57:43;;;;;;;23.73;4.72;;;;;;;14.33;37.25;99630.59;1663317;86;27526;-57
2022/02/17 10:00:13;;;;;;;9.98;3.85;;;;;;;14.44;36.55;99632.79;1663359;86;25789;-57
2022/02/17 10:02:42;;;;;;;13.45;4.37;;;;;;;14.58;36.21;99632.44;1656075;86;25846;-57
2022/02/17 10:05:15;;;;;;;14.60;3.80;;;;;;;14.62;36.02;99612.09;1664313;86;26971;-57
2022/02/17 10:07:44;;;;;;;10.80;4.23;;;;;;;14.77;36.03;99608.52;1655902;86;25799;-58
2022/02/17 10:10:22;;;;;;;12.45;3.85;;;;;;;14.99;35.31;99591.26;1666119;86;27509;-57
2022/02/17 10:13:01;;;;;;;12.23;4.25;;;;;;;15.23;34.74;99593.75;1668597;85;26522;-56
2022/02/17 10:15:35;;;;;;;9.33;3.95;;;;;;;15.51;34.50;99591.05;1668557;85;25731;-57
2022/02/17 10:18:14;;;;;;;10.08;4.28;;;;;;;15.87;34.01;99575.67;1668530;85;26216;-57
2022/02/17 10:21:07;;;;;;;13.35;4.50;;;;;;;15.80;33.74;99571.53;1668252;86;25810;-56
2022/02/17 10:23:49;;;;;;;23.83;4.00;;;;;;;15.84;33.70;99571.46;1667685;85;27531;-57
2022/02/17 10:26:23;;;;;;;10.40;4.00;;;;;;;16.11;33.92;99565.66;1668518;84;25841;-57
2022/02/17 10:28:59;;;;;;;8.28;4.65;;;;;;;17.24;33.83;99559.31;1669017;86;34321;-56
2022/02/17 10:31:29;;;;;;;9.45;4.75;;;;;;;18.28;31.89;99545.90;1668276;85;25781;-56
2022/02/17 10:34:00;;;;;;;7.97;3.33;;;;;;;19.27;30.25;99530.97;1669227;85;25543;-57
2022/02/17 10:36:37;;;;;;;11.80;3.52;;;;;;;19.87;28.26;99529.53;1669347;84;27460;-57
2022/02/17 10:39:22;;;;;;;11.93;3.75;;;;;;;20.36;27.44;99528.72;1668763;86;25823;-57
2022/02/17 10:41:54;;;;;;;24.02;4.55;;;;;;;21.03;27.43;99508.06;1668792;86;25796;-56
2022/02/17 10:44:26;;;;;;;14.18;3.60;;;;;;;21.16;26.48;99501.53;1668736;84;26372;-56
2022/02/17 10:46:53;;;;;;;12.33;3.80;;;;;;;20.67;26.49;99503.56;1664247;84;25912;-56
2022/02/17 10:49:21;;;;;;;12.90;3.47;;;;;;;20.14;27.13;99501.89;1668605;86;27523;-58
2022/02/17 10:51:50;;;;;;;12.55;3.60;;;;;;;19.86;27.00;99509.61;1668683;86;25525;-57
2022/02/17 10:54:24;;;;;;;9.75;3.17;;;;;;;20.42;26.48;99474.52;1668938;85;25773;-56
2022/02/17 10:56:51;;;;;;;7.40;3.80;;;;;;;21.22;25.51;99486.08;1669430;84;25783;-56
2022/02/17 11:02:06;;;;;;;14.80;4.33;;;;;;;22.40;24.12;99443.89;1668839;86;28161;-57
2022/02/17 11:04:33;;;;;;;7.85;3.70;;;;;;;22.77;24.67;99432.45;1668468;84;25481;-57
2022/02/17 11:07:00;;;;;;;8.10;2.70;;;;;;;22.98;23.39;99432.78;1668861;85;25491;-57
2022/02/17 11:09:27;;;;;;;13.53;4.25;;;;;;;23.25;22.44;99430.17;1668995;86;25813;-57
2022/02/17 11:11:55;;;;;;;7.62;3.95;;;;;;;23.20;22.93;99431.48;1661338;86;25717;-57
2022/02/17 11:14:43;;;;;;;10.40;4.28;;;;;;;23.36;23.18;99425.64;1657014;86;27481;-58
2022/02/17 11:17:13;;;;;;;8.78;3.62;;;;;;;23.37;23.48;99428.68;1656964;86;25801;-58
2022/02/17 11:19:41;;;;;;;9.40;3.85;;;;;;;22.86;22.55;99434.77;1657173;86;25840;-58
2022/02/17 11:22:11;;;;;;;6.60;3.87;;;;;;;22.04;22.96;99431.73;1657258;86;25764;-57
2022/02/17 11:24:53;;;;;;;14.93;4.12;;;;;;;21.19;23.85;99438.69;1660347;86;25449;-56
2022/02/17 11:27:22;;;;;;;9.68;3.92;;;;;;;20.49;24.74;99435.13;1668789;85;28339;-56
2022/02/17 11:29:49;;;;;;;9.95;4.03;;;;;;;19.77;25.60;99432.33;1668844;85;25756;-58
2022/02/17 11:32:23;;;;;;;10.63;4.05;;;;;;;19.29;26.20;99426.62;1668745;85;25740;-56
2022/02/17 11:34:55;;;;;;;8.35;4.50;;;;;;;18.93;26.92;99436.42;1670105;84;26023;-56